createdAt,value
2023-08-22T00:01:33.540Z,78.34
2023-08-22T00:04:01.640Z,78.38
2023-08-22T00:06:36.926Z,81.25
2023-08-22T00:09:06.638Z,81.08
2023-08-22T00:11:35.868Z,79.73
2023-08-22T00:14:04.482Z,76.76
2023-08-22T00:16:32.222Z,78.76
2023-08-22T00:18:59.455Z,77.74
2023-08-22T00:21:27.197Z,76.17
2023-08-22T00:23:54.242Z,77.12
2023-08-22T00:26:21.560Z,76.81
2023-08-22T00:28:48.685Z,79.37
2023-08-22T00:31:15.585Z,80.48
2023-08-22T00:33:42.508Z,81.22
2023-08-22T00:36:09.634Z,77.65
2023-08-22T00:38:36.743Z,78.57
2023-08-22T00:41:03.858Z,78.13
2023-08-22T00:43:30.615Z,80.83
2023-08-22T00:45:57.716Z,80.91
2023-08-22T00:48:24.752Z,80.26
2023-08-22T00:50:51.772Z,79.84
2023-08-22T00:53:18.702Z,79.27
2023-08-22T00:55:45.891Z,81.30
2023-08-22T00:58:14.335Z,85.48
2023-08-22T01:00:41.221Z,80.70
2023-08-22T01:03:08.461Z,78.10
2023-08-22T01:05:40.225Z,80.61
2023-08-22T01:08:15.735Z,78.67
2023-08-22T01:10:54.186Z,79.70
2023-08-22T01:13:30.970Z,84.28
2023-08-22T01:15:59.014Z,82.10
2023-08-22T01:18:26.663Z,83.15
2023-08-22T01:20:59.410Z,80.92
2023-08-22T01:23:26.190Z,80.66
2023-08-22T01:25:53.680Z,80.38
2023-08-22T01:28:56.075Z,77.13
2023-08-22T01:31:51.278Z,80.70
2023-08-22T01:34:26.959Z,78.89
2023-08-22T01:36:57.985Z,77.21
2023-08-22T01:39:28.024Z,78.10
2023-08-22T01:41:56.524Z,77.95
2023-08-22T01:44:23.980Z,77.90
2023-08-22T01:46:50.959Z,79.31
2023-08-22T01:49:17.867Z,76.08
2023-08-22T01:51:44.920Z,74.70
2023-08-22T01:54:11.716Z,74.87
2023-08-22T01:56:38.707Z,75.57
2023-08-22T01:59:07.600Z,76.03
2023-08-22T02:01:36.240Z,76.07
2023-08-22T02:04:05.440Z,78.32
2023-08-22T02:06:33.739Z,76.41
2023-08-22T02:09:05.314Z,78.76
2023-08-22T02:11:33.193Z,78.85
2023-08-22T02:14:04.134Z,79.37
2023-08-22T02:16:31.151Z,82.13
2023-08-22T02:18:58.218Z,82.56
2023-08-22T02:21:25.621Z,83.45
2023-08-22T02:23:52.517Z,82.34
2023-08-22T02:26:19.671Z,82.14
2023-08-22T02:28:46.823Z,83.15
2023-08-22T02:31:14.213Z,80.83
2023-08-22T02:33:41.299Z,80.16
2023-08-22T02:36:08.756Z,78.72
2023-08-22T02:38:37.744Z,78.30
2023-08-22T02:41:04.957Z,77.07
2023-08-22T02:43:31.919Z,74.23
2023-08-22T02:45:59.063Z,75.53
2023-08-22T02:48:26.029Z,79.00
2023-08-22T02:50:52.953Z,81.51
2023-08-22T02:53:20.000Z,82.76
2023-08-22T02:55:50.310Z,78.57
2023-08-22T02:58:17.284Z,78.60
2023-08-22T03:00:47.785Z,78.60
2023-08-22T03:03:15.845Z,84.12
2023-08-22T03:05:42.868Z,81.21
2023-08-22T03:08:09.832Z,81.67
2023-08-22T03:10:36.858Z,78.44
2023-08-22T03:13:03.807Z,83.57
2023-08-22T03:15:30.788Z,85.77
2023-08-22T03:17:57.642Z,82.91
2023-08-22T03:20:24.630Z,81.58
2023-08-22T03:22:51.629Z,79.64
2023-08-22T03:25:18.562Z,80.38
2023-08-22T03:27:45.437Z,82.19
2023-08-22T03:30:12.544Z,82.29
2023-08-22T03:32:39.540Z,83.62
2023-08-22T03:35:08.401Z,83.67
2023-08-22T03:37:35.331Z,82.08
2023-08-22T03:40:02.924Z,84.33
2023-08-22T03:42:30.136Z,83.13
2023-08-22T03:44:57.287Z,83.71
2023-08-22T03:47:24.524Z,80.99
2023-08-22T03:49:51.604Z,82.56
2023-08-22T03:52:18.520Z,82.67
2023-08-22T03:54:45.436Z,83.40
2023-08-22T03:57:12.247Z,83.15
2023-08-22T03:59:39.524Z,81.76
2023-08-22T04:02:07.775Z,80.12
2023-08-22T04:04:34.712Z,83.36
2023-08-22T04:07:01.550Z,79.09
2023-08-22T04:09:28.527Z,80.87
2023-08-22T04:11:55.960Z,78.91
2023-08-22T04:14:22.800Z,81.34
2023-08-22T04:16:49.916Z,82.15
2023-08-22T04:19:16.930Z,87.49
2023-08-22T04:21:44.313Z,87.80
2023-08-22T04:24:11.348Z,81.03
2023-08-22T04:26:38.844Z,85.74
2023-08-22T04:29:06.628Z,82.46
2023-08-22T04:31:33.349Z,83.99
2023-08-22T04:34:00.225Z,82.53
2023-08-22T04:36:27.077Z,82.38
2023-08-22T04:38:53.868Z,84.35
2023-08-22T04:41:20.704Z,84.84
2023-08-22T04:43:47.450Z,87.20
2023-08-22T04:46:16.766Z,84.59
2023-08-22T04:48:43.895Z,80.79
2023-08-22T04:51:10.735Z,77.99
2023-08-22T04:53:37.540Z,82.27
2023-08-22T04:56:04.592Z,84.55
2023-08-22T04:58:31.350Z,79.79
2023-08-22T05:00:58.713Z,77.59
2023-08-22T05:03:25.872Z,76.64
2023-08-22T05:05:52.628Z,76.12
2023-08-22T05:08:20.166Z,78.65
2023-08-22T05:10:46.987Z,81.17
2023-08-22T05:13:13.855Z,78.29
2023-08-22T05:15:40.678Z,76.54
2023-08-22T05:18:07.704Z,78.64
2023-08-22T05:20:34.707Z,76.26
2023-08-22T05:23:01.502Z,73.22
2023-08-22T05:25:28.368Z,75.60
2023-08-22T05:27:55.142Z,77.50
2023-08-22T05:30:22.828Z,75.32
2023-08-22T05:32:49.614Z,72.33
2023-08-22T05:35:16.615Z,68.95
2023-08-22T05:37:43.577Z,67.77
2023-08-22T05:40:11.388Z,67.92
2023-08-22T05:42:38.439Z,69.21
2023-08-22T05:45:05.854Z,72.90
2023-08-22T05:47:32.777Z,76.23
2023-08-22T05:49:59.581Z,72.08
2023-08-22T05:52:39.711Z,70.93
2023-08-22T05:55:07.665Z,69.28
2023-08-22T05:57:34.500Z,66.06
2023-08-22T06:00:01.871Z,64.69
2023-08-22T06:02:28.834Z,62.02
2023-08-22T06:04:55.733Z,67.88
2023-08-22T06:07:22.727Z,65.74
2023-08-22T06:09:49.736Z,62.63
2023-08-22T06:12:16.669Z,67.29
2023-08-22T06:14:44.818Z,61.71
2023-08-22T06:17:11.707Z,60.72
2023-08-22T06:19:38.561Z,61.97
2023-08-22T06:22:05.369Z,58.82
2023-08-22T06:24:32.142Z,59.03
2023-08-22T06:26:59.042Z,59.64
2023-08-22T06:29:25.928Z,60.09
2023-08-22T06:32:11.526Z,65.97
2023-08-22T06:34:38.457Z,64.06
2023-08-22T06:37:07.707Z,65.38
2023-08-22T06:39:34.696Z,59.39
2023-08-22T06:42:01.429Z,57.13
2023-08-22T06:44:28.349Z,55.55
2023-08-22T06:46:55.470Z,61.14
2023-08-22T06:49:22.399Z,57.15
2023-08-22T06:51:50.629Z,57.93
2023-08-22T06:54:19.224Z,59.46
2023-08-22T06:56:45.965Z,59.28
2023-08-22T06:59:12.930Z,58.17
2023-08-22T07:01:40.645Z,58.66
2023-08-22T07:04:16.688Z,55.80
2023-08-22T07:06:44.315Z,58.94
2023-08-22T07:09:11.149Z,55.92
2023-08-22T07:11:38.030Z,54.95
2023-08-22T07:14:04.845Z,57.01
2023-08-22T07:16:40.322Z,56.48
2023-08-22T07:19:27.727Z,56.16
2023-08-22T07:22:03.636Z,53.95
2023-08-22T07:24:30.706Z,56.38
2023-08-22T07:26:57.698Z,57.20
2023-08-22T07:29:24.905Z,55.46
2023-08-22T07:31:51.996Z,54.27
2023-08-22T07:34:18.905Z,54.86
2023-08-22T07:36:45.761Z,53.69
2023-08-22T07:39:12.716Z,55.04
2023-08-22T07:41:39.830Z,53.75
2023-08-22T07:44:06.677Z,58.67
2023-08-22T07:46:33.660Z,54.36
2023-08-22T07:49:00.516Z,54.28
2023-08-22T07:51:27.367Z,52.37
2023-08-22T07:53:54.553Z,53.27
2023-08-22T07:56:21.614Z,51.52
2023-08-22T07:58:49.468Z,52.25
2023-08-22T08:01:16.438Z,53.42
2023-08-22T08:03:43.729Z,54.04
2023-08-22T08:06:10.680Z,53.10
2023-08-22T08:08:37.549Z,54.64
2023-08-22T08:11:06.425Z,52.02
2023-08-22T08:13:36.243Z,53.42
2023-08-22T08:16:07.346Z,53.54
2023-08-22T08:18:37.538Z,53.42
2023-08-22T08:21:05.020Z,54.40
2023-08-22T08:23:33.490Z,49.61
2023-08-22T08:26:01.061Z,47.19
2023-08-22T08:28:28.016Z,49.37
2023-08-22T08:30:54.898Z,50.06
2023-08-22T08:33:25.382Z,46.54
2023-08-22T08:36:04.156Z,45.64
2023-08-22T08:38:31.457Z,47.21
2023-08-22T08:41:01.845Z,46.86
2023-08-22T08:43:50.358Z,44.22
2023-08-22T08:46:17.531Z,42.64
2023-08-22T08:48:45.633Z,44.65
2023-08-22T08:51:12.945Z,43.32
2023-08-22T08:53:42.269Z,42.47
2023-08-22T08:56:11.609Z,42.23
2023-08-22T08:58:40.031Z,41.72
2023-08-22T09:01:08.834Z,41.17
2023-08-22T09:03:36.075Z,40.98
2023-08-22T09:06:03.134Z,41.11
2023-08-22T09:08:30.288Z,39.89
2023-08-22T09:10:57.248Z,40.32
2023-08-22T09:13:38.411Z,41.97
2023-08-22T09:16:09.541Z,41.31
2023-08-22T09:18:43.547Z,39.67
2023-08-22T09:21:12.206Z,40.13
2023-08-22T09:23:41.641Z,38.59
2023-08-22T09:26:09.694Z,38.17
2023-08-22T09:28:41.058Z,39.08
2023-08-22T09:31:08.370Z,38.65
2023-08-22T09:33:48.987Z,38.88
2023-08-22T09:36:20.615Z,36.40
2023-08-22T09:38:58.145Z,37.01
2023-08-22T09:41:31.003Z,35.72
2023-08-22T09:44:02.616Z,35.05
2023-08-22T09:46:31.077Z,36.30
2023-08-22T09:48:59.029Z,34.93
2023-08-22T09:51:26.988Z,33.11
2023-08-22T09:54:01.408Z,32.79
2023-08-22T09:56:28.565Z,32.55
2023-08-22T09:58:56.546Z,32.84
2023-08-22T10:01:51.929Z,34.03
2023-08-22T10:04:19.948Z,32.50
2023-08-22T10:06:50.831Z,32.25
2023-08-22T10:09:19.082Z,31.04
2023-08-22T10:11:57.001Z,30.46
2023-08-22T10:14:37.601Z,31.78
2023-08-22T10:17:05.100Z,31.58
2023-08-22T10:19:35.465Z,31.59
2023-08-22T10:22:15.629Z,29.54
2023-08-22T10:24:44.243Z,28.75
2023-08-22T10:27:15.651Z,30.23
2023-08-22T10:30:14.362Z,29.34
2023-08-22T10:33:09.113Z,29.58
2023-08-22T10:36:05.901Z,28.84
2023-08-22T10:38:57.235Z,29.04
2023-08-22T10:41:25.624Z,30.31
2023-08-22T10:43:55.688Z,29.99
2023-08-22T10:47:01.107Z,29.08
2023-08-22T10:49:32.478Z,29.88
2023-08-22T10:52:13.295Z,30.12
2023-08-22T10:55:10.355Z,29.63
2023-08-22T10:57:42.623Z,29.68
2023-08-22T11:00:45.064Z,30.34
2023-08-22T11:03:23.178Z,30.32
2023-08-22T11:05:51.692Z,30.22
2023-08-22T11:11:21.914Z,29.59
2023-08-22T11:13:49.374Z,29.54
2023-08-22T11:16:19.609Z,30.44
2023-08-22T11:18:48.649Z,31.41
2023-08-22T11:21:16.235Z,30.46
2023-08-22T11:23:44.308Z,31.21
2023-08-22T11:26:13.108Z,29.86
2023-08-22T11:28:40.872Z,29.84
2023-08-22T11:31:14.773Z,30.56
2023-08-22T11:33:48.076Z,29.30
2023-08-22T11:36:15.768Z,29.17
2023-08-22T11:38:43.657Z,28.57
2023-08-22T11:41:11.415Z,28.57
2023-08-22T11:43:46.753Z,29.23
2023-08-22T11:46:14.079Z,28.35
2023-08-22T11:48:42.749Z,26.89
2023-08-22T11:51:09.672Z,27.56
2023-08-22T11:53:37.033Z,26.65
2023-08-22T11:56:06.723Z,28.17
2023-08-22T11:58:36.588Z,27.88
2023-08-22T12:01:04.736Z,27.86
2023-08-22T12:03:44.252Z,27.54
2023-08-22T12:06:16.926Z,28.20
2023-08-22T12:08:44.602Z,27.77
2023-08-22T12:11:24.494Z,27.35
2023-08-22T12:13:51.454Z,27.14
2023-08-22T12:16:18.682Z,27.08
2023-08-22T12:18:45.518Z,26.59
2023-08-22T12:21:12.232Z,26.44
2023-08-22T12:23:39.182Z,26.61
2023-08-22T12:26:05.917Z,26.79
2023-08-22T12:28:32.716Z,27.15
2023-08-22T12:30:59.913Z,28.06
2023-08-22T12:33:26.730Z,27.75
2023-08-22T12:35:53.550Z,27.60
2023-08-22T12:38:20.576Z,27.91
2023-08-22T12:40:55.589Z,27.52
2023-08-22T12:43:25.422Z,27.76
2023-08-22T12:45:52.867Z,26.82
2023-08-22T12:48:19.876Z,27.19
2023-08-22T12:50:46.995Z,26.61
2023-08-22T12:53:14.166Z,25.74
2023-08-22T12:55:42.738Z,27.56
2023-08-22T12:58:09.792Z,27.25
2023-08-22T13:00:38.465Z,27.30
2023-08-22T13:03:06.766Z,27.26
2023-08-22T13:05:34.019Z,27.29
2023-08-22T13:08:01.032Z,27.31
2023-08-22T13:10:27.949Z,27.73
2023-08-22T13:12:55.594Z,26.89
2023-08-22T13:15:22.925Z,26.98
2023-08-22T13:17:50.921Z,26.91
2023-08-22T13:20:18.500Z,27.56
2023-08-22T13:36:07.718Z,28.58
2023-08-22T13:38:34.469Z,27.71
2023-08-22T13:41:01.260Z,27.63
2023-08-22T13:56:57.231Z,26.62
2023-08-22T13:59:24.280Z,26.72
2023-08-22T14:01:51.185Z,26.80
2023-08-22T14:04:20.831Z,27.35
2023-08-22T14:06:48.896Z,26.94
2023-08-22T14:09:25.736Z,26.87
2023-08-22T14:11:53.852Z,26.56
2023-08-22T14:14:20.792Z,27.40
2023-08-22T14:16:48.161Z,27.41
2023-08-22T14:19:15.097Z,25.69
2023-08-22T14:21:47.986Z,25.77
2023-08-22T14:24:26.839Z,25.45
2023-08-22T14:27:12.141Z,25.80
2023-08-22T14:29:39.277Z,25.50
2023-08-22T14:32:06.230Z,26.38
2023-08-22T14:34:33.401Z,26.12
2023-08-22T14:37:08.871Z,25.03
2023-08-22T14:39:47.208Z,25.80
2023-08-22T14:42:14.297Z,25.26
2023-08-22T14:44:41.457Z,25.56
2023-08-22T14:47:08.989Z,25.57
2023-08-22T14:49:36.101Z,26.20
2023-08-22T14:52:03.585Z,25.30
2023-08-22T15:09:49.548Z,25.07
2023-08-22T15:12:17.275Z,25.37
2023-08-22T15:14:44.202Z,25.11
2023-08-22T15:17:11.350Z,25.32
2023-08-22T15:19:38.199Z,24.75
2023-08-22T15:22:05.201Z,24.93
2023-08-22T15:24:32.140Z,25.04
2023-08-22T15:26:58.834Z,24.79
2023-08-22T15:29:25.593Z,24.91
2023-08-22T15:31:52.578Z,25.94
2023-08-22T15:34:19.355Z,26.04
2023-08-22T15:36:46.107Z,26.49
2023-08-22T15:39:13.187Z,26.39
2023-08-22T15:41:40.088Z,26.43
2023-08-22T15:44:06.868Z,26.45
2023-08-22T15:46:33.901Z,26.85
2023-08-22T15:49:00.783Z,27.12
2023-08-22T15:51:27.622Z,26.84
2023-08-22T15:53:54.581Z,26.72
2023-08-22T15:56:21.346Z,27.30
2023-08-22T15:58:48.079Z,26.73
2023-08-22T16:01:15.325Z,26.89
2023-08-22T16:03:44.141Z,26.29
2023-08-22T16:06:20.707Z,26.74
2023-08-22T16:08:47.773Z,28.18
2023-08-22T16:11:14.708Z,28.01
2023-08-22T16:13:41.647Z,28.94
2023-08-22T16:16:10.431Z,29.23
2023-08-22T16:18:37.774Z,29.22
2023-08-22T16:21:04.853Z,30.85
2023-08-22T16:23:32.096Z,31.32
2023-08-22T16:25:58.886Z,32.25
2023-08-22T16:28:26.177Z,32.97
2023-08-22T16:30:56.264Z,33.90
2023-08-22T16:33:23.165Z,34.80
2023-08-22T16:35:54.389Z,34.15
2023-08-22T16:38:23.034Z,35.29
2023-08-22T16:40:59.238Z,35.00
2023-08-22T16:43:26.428Z,35.69
2023-08-22T16:45:54.794Z,35.62
2023-08-22T16:48:21.643Z,36.65
2023-08-22T16:50:49.803Z,37.10
2023-08-22T16:53:16.991Z,37.00
2023-08-22T16:55:44.326Z,37.24
2023-08-22T16:58:11.150Z,37.38
2023-08-22T17:00:38.025Z,37.54
2023-08-22T17:03:05.178Z,37.33
2023-08-22T17:05:35.354Z,37.52
2023-08-22T17:08:02.245Z,38.46
2023-08-22T17:10:30.611Z,38.84
2023-08-22T17:12:57.555Z,39.02
2023-08-22T17:15:26.651Z,38.74
2023-08-22T17:17:54.031Z,39.31
2023-08-22T17:20:21.141Z,38.30
2023-08-22T17:22:47.900Z,37.44
2023-08-22T17:25:14.873Z,37.28
2023-08-22T17:27:41.809Z,37.09
2023-08-22T17:30:09.217Z,37.94
2023-08-22T17:32:37.235Z,39.04
2023-08-22T17:35:05.809Z,38.23
2023-08-22T17:37:32.620Z,38.40
2023-08-22T17:39:59.446Z,37.63
2023-08-22T17:42:26.226Z,37.46
2023-08-22T17:44:53.238Z,37.37
2023-08-22T17:47:46.421Z,37.67
2023-08-22T17:50:13.604Z,38.64
2023-08-22T17:52:40.648Z,38.58
2023-08-22T17:55:08.007Z,37.85
2023-08-22T17:57:34.884Z,36.99
2023-08-22T18:00:02.007Z,35.92
2023-08-22T18:02:28.994Z,36.76
2023-08-22T18:04:56.254Z,37.34
2023-08-22T18:07:23.260Z,37.12
2023-08-22T18:09:50.203Z,37.82
2023-08-22T18:12:17.087Z,37.75
2023-08-22T18:14:43.904Z,37.63
2023-08-22T18:17:11.135Z,39.41
2023-08-22T18:19:38.095Z,38.86
2023-08-22T18:22:04.939Z,39.94
2023-08-22T18:24:32.285Z,39.99
2023-08-22T18:26:59.256Z,39.78
2023-08-22T18:29:26.876Z,40.28
2023-08-22T18:31:53.822Z,41.99
2023-08-22T18:34:20.635Z,42.56
2023-08-22T18:36:47.420Z,41.48
2023-08-22T18:39:20.530Z,41.67
2023-08-22T18:41:47.402Z,41.34
2023-08-22T18:44:14.364Z,40.90
2023-08-22T18:46:41.446Z,42.43
2023-08-22T18:49:08.844Z,41.12
2023-08-22T18:51:35.820Z,42.42
2023-08-22T18:54:03.304Z,42.37
2023-08-22T18:56:32.797Z,43.12
2023-08-22T19:04:09.043Z,44.48
2023-08-22T19:06:36.062Z,46.02
2023-08-22T19:09:03.114Z,44.93
2023-08-22T19:11:30.312Z,44.62
2023-08-22T19:13:58.656Z,45.08
2023-08-22T19:16:25.904Z,45.87
2023-08-22T19:18:52.956Z,45.77
2023-08-22T19:21:19.870Z,45.71
2023-08-22T19:23:46.685Z,45.33
2023-08-22T19:26:13.520Z,44.89
2023-08-22T19:28:40.973Z,45.67
2023-08-22T19:31:07.889Z,45.31
2023-08-22T19:33:35.943Z,48.41
2023-08-22T19:36:02.927Z,49.20
2023-08-22T19:38:29.751Z,49.50
2023-08-22T19:40:58.777Z,48.77
2023-08-22T19:43:25.694Z,49.01
2023-08-22T19:45:52.699Z,48.31
2023-08-22T19:48:20.687Z,47.72
2023-08-22T19:50:47.692Z,48.03
2023-08-22T19:53:15.074Z,48.78
2023-08-22T19:55:42.196Z,47.82
2023-08-22T19:58:08.938Z,48.18
2023-08-22T20:00:48.657Z,47.17
2023-08-22T20:03:16.023Z,47.10
2023-08-22T20:05:42.967Z,49.04
2023-08-22T20:08:10.428Z,49.03
2023-08-22T20:10:46.342Z,48.81
2023-08-22T20:13:20.092Z,49.08
2023-08-22T20:15:52.613Z,48.91
2023-08-22T20:18:19.626Z,46.74
2023-08-22T20:20:47.870Z,49.00
2023-08-22T20:23:16.965Z,49.76
2023-08-22T20:25:43.880Z,49.38
2023-08-22T20:28:10.664Z,48.99
2023-08-22T20:30:37.642Z,47.64
2023-08-22T20:33:04.797Z,47.94
2023-08-22T20:35:31.656Z,46.36
2023-08-22T20:37:58.742Z,49.95
2023-08-22T20:40:25.667Z,48.86
2023-08-22T20:42:56.081Z,50.00
2023-08-22T20:45:23.407Z,50.95
2023-08-22T20:47:50.676Z,51.20
2023-08-22T20:50:17.824Z,50.50
2023-08-22T20:52:45.137Z,51.88
2023-08-22T20:55:12.403Z,49.80
2023-08-22T20:57:39.439Z,49.93
2023-08-22T21:00:10.046Z,49.41
2023-08-22T21:02:39.561Z,49.11
2023-08-22T21:05:06.913Z,48.92
2023-08-22T21:07:33.840Z,50.50
2023-08-22T21:10:01.100Z,50.55
2023-08-22T21:12:36.059Z,50.67
2023-08-22T21:15:07.168Z,51.54
2023-08-22T21:17:47.184Z,49.39
2023-08-22T21:20:14.330Z,51.15
2023-08-22T21:22:41.216Z,52.55
2023-08-22T21:25:12.706Z,51.64
2023-08-22T21:27:40.114Z,50.60
2023-08-22T21:30:13.858Z,48.90
2023-08-22T21:32:41.106Z,49.31
2023-08-22T21:35:08.837Z,51.63
2023-08-22T21:38:03.440Z,50.43
2023-08-22T21:40:33.623Z,52.10
2023-08-22T21:43:00.688Z,52.56
2023-08-22T21:45:27.573Z,51.45
2023-08-22T21:47:54.595Z,51.04
2023-08-22T21:50:21.713Z,51.70
2023-08-22T21:52:48.854Z,53.88
2023-08-22T21:55:15.890Z,54.50
2023-08-22T21:57:43.046Z,54.93
2023-08-22T22:00:10.428Z,55.28
2023-08-22T22:02:37.421Z,54.79
2023-08-22T22:05:04.883Z,55.09
2023-08-22T22:07:31.950Z,52.33
2023-08-22T22:09:58.825Z,52.47
2023-08-22T22:12:25.819Z,54.06
2023-08-22T22:14:52.839Z,54.54
2023-08-22T22:17:27.058Z,54.86
2023-08-22T22:19:54.693Z,53.41
2023-08-22T22:22:22.393Z,52.95
2023-08-22T22:24:49.680Z,56.10
2023-08-22T22:27:17.096Z,54.09
2023-08-22T22:29:44.631Z,54.09
2023-08-22T22:32:11.623Z,54.67
2023-08-22T22:34:38.761Z,56.15
2023-08-22T22:37:05.845Z,56.20
2023-08-22T22:39:32.761Z,54.78
2023-08-22T22:41:59.917Z,56.26
2023-08-22T22:44:26.888Z,55.46
2023-08-22T22:46:56.606Z,55.05
2023-08-22T22:49:24.495Z,54.62
2023-08-22T22:51:51.806Z,54.92
2023-08-22T22:54:18.806Z,54.03
2023-08-22T22:56:46.376Z,53.94
2023-08-22T22:59:13.207Z,55.82
2023-08-22T23:01:40.310Z,57.48
2023-08-22T23:04:07.238Z,57.30
2023-08-22T23:06:34.925Z,56.42
2023-08-22T23:09:01.961Z,58.00
2023-08-22T23:11:38.201Z,59.47
2023-08-22T23:14:18.392Z,60.05
2023-08-22T23:16:45.584Z,58.94
2023-08-22T23:19:18.518Z,58.89
2023-08-22T23:21:45.527Z,58.26
2023-08-22T23:24:41.318Z,59.12
2023-08-22T23:27:08.270Z,58.53
2023-08-22T23:29:35.506Z,59.50
2023-08-22T23:32:02.778Z,60.87
2023-08-22T23:34:58.157Z,61.89
2023-08-22T23:37:41.726Z,60.94
2023-08-22T23:40:38.998Z,58.92
2023-08-22T23:43:09.824Z,58.62
2023-08-22T23:45:53.549Z,58.30
2023-08-22T23:48:25.428Z,60.16
2023-08-22T23:50:58.166Z,58.39
2023-08-22T23:53:31.320Z,59.57
2023-08-22T23:55:58.380Z,59.85
2023-08-22T23:58:25.393Z,57.47
